sensor_id;sensor_type;location;lat;lon;timestamp;pressure;altitude;pressure_sealevel;temperature;humidity
6144;BME280;3103;49.492;8.474;2022-08-16T00:00:43;99805.84;;;22.39;60.25
6144;BME280;3103;49.492;8.474;2022-08-16T00:03:11;99801.81;;;22.37;60.27
6144;BME280;3103;49.492;8.474;2022-08-16T00:05:41;99799.16;;;22.28;60.66
6144;BME280;3103;49.492;8.474;2022-08-16T00:08:15;99793.53;;;22.25;60.85
6144;BME280;3103;49.492;8.474;2022-08-16T00:11:04;99797.00;;;22.13;61.63
6144;BME280;3103;49.492;8.474;2022-08-16T00:13:32;99791.31;;;22.18;61.70
6144;BME280;3103;49.492;8.474;2022-08-16T00:16:09;99800.53;;;22.05;62.18
6144;BME280;3103;49.492;8.474;2022-08-16T00:18:56;99804.56;;;22.07;62.09
6144;BME280;3103;49.492;8.474;2022-08-16T00:21:24;99811.38;;;21.92;62.55
6144;BME280;3103;49.492;8.474;2022-08-16T00:23:55;99807.38;;;21.90;62.63
6144;BME280;3103;49.492;8.474;2022-08-16T00:26:22;99811.06;;;21.94;62.55
6144;BME280;3103;49.492;8.474;2022-08-16T00:29:13;99812.81;;;21.99;62.24
6144;BME280;3103;49.492;8.474;2022-08-16T00:31:48;99812.44;;;22.09;61.93
6144;BME280;3103;49.492;8.474;2022-08-16T00:34:32;99821.28;;;22.14;61.88
6144;BME280;3103;49.492;8.474;2022-08-16T00:37:22;99820.09;;;22.24;61.77
6144;BME280;3103;49.492;8.474;2022-08-16T00:39:52;99813.41;;;22.34;61.56
6144;BME280;3103;49.492;8.474;2022-08-16T00:42:29;99808.50;;;22.27;61.61
6144;BME280;3103;49.492;8.474;2022-08-16T00:45:36;99813.00;;;22.23;61.76
6144;BME280;3103;49.492;8.474;2022-08-16T00:48:25;99814.34;;;22.38;61.42
6144;BME280;3103;49.492;8.474;2022-08-16T00:51:00;99814.47;;;22.20;61.94
6144;BME280;3103;49.492;8.474;2022-08-16T00:53:31;99812.75;;;22.16;62.06
6144;BME280;3103;49.492;8.474;2022-08-16T00:56:03;99811.47;;;22.13;62.00
6144;BME280;3103;49.492;8.474;2022-08-16T00:58:33;99812.59;;;22.12;62.34
6144;BME280;3103;49.492;8.474;2022-08-16T01:01:03;99812.88;;;22.61;60.89
6144;BME280;3103;49.492;8.474;2022-08-16T01:03:35;99821.50;;;22.30;62.00
6144;BME280;3103;49.492;8.474;2022-08-16T01:06:12;99813.63;;;21.99;63.25
6144;BME280;3103;49.492;8.474;2022-08-16T01:09:01;99817.84;;;21.88;63.70
6144;BME280;3103;49.492;8.474;2022-08-16T01:11:35;99828.25;;;21.94;63.56
6144;BME280;3103;49.492;8.474;2022-08-16T01:14:25;99821.19;;;21.93;63.61
6144;BME280;3103;49.492;8.474;2022-08-16T01:16:57;99827.91;;;22.05;63.13
6144;BME280;3103;49.492;8.474;2022-08-16T01:19:38;99827.63;;;21.98;63.09
6144;BME280;3103;49.492;8.474;2022-08-16T01:22:24;99825.34;;;22.00;63.39
6144;BME280;3103;49.492;8.474;2022-08-16T01:25:18;99831.75;;;22.04;63.31
6144;BME280;3103;49.492;8.474;2022-08-16T01:27:51;99823.78;;;21.90;64.02
6144;BME280;3103;49.492;8.474;2022-08-16T01:30:32;99824.09;;;21.97;63.75
6144;BME280;3103;49.492;8.474;2022-08-16T01:33:07;99820.72;;;21.91;63.83
6144;BME280;3103;49.492;8.474;2022-08-16T01:35:54;99819.91;;;21.91;64.10
6144;BME280;3103;49.492;8.474;2022-08-16T01:38:30;99825.50;;;22.03;63.93
6144;BME280;3103;49.492;8.474;2022-08-16T01:41:06;99823.75;;;21.99;64.27
6144;BME280;3103;49.492;8.474;2022-08-16T01:43:37;99820.59;;;21.88;64.80
6144;BME280;3103;49.492;8.474;2022-08-16T01:46:18;99820.44;;;21.84;65.18
6144;BME280;3103;49.492;8.474;2022-08-16T01:49:11;99819.97;;;21.82;65.38
6144;BME280;3103;49.492;8.474;2022-08-16T01:51:42;99818.41;;;21.73;65.83
6144;BME280;3103;49.492;8.474;2022-08-16T01:54:10;99817.97;;;21.62;66.42
6144;BME280;3103;49.492;8.474;2022-08-16T01:56:48;99814.03;;;21.42;66.99
6144;BME280;3103;49.492;8.474;2022-08-16T01:59:17;99818.72;;;21.33;67.62
6144;BME280;3103;49.492;8.474;2022-08-16T02:01:47;99821.25;;;21.38;67.51
6144;BME280;3103;49.492;8.474;2022-08-16T02:04:20;99824.03;;;21.29;67.73
6144;BME280;3103;49.492;8.474;2022-08-16T02:07:09;99822.56;;;21.23;67.98
6144;BME280;3103;49.492;8.474;2022-08-16T02:09:38;99823.34;;;21.24;67.85
6144;BME280;3103;49.492;8.474;2022-08-16T02:12:07;99815.47;;;21.22;68.19
6144;BME280;3103;49.492;8.474;2022-08-16T02:14:55;99813.06;;;21.38;67.50
6144;BME280;3103;49.492;8.474;2022-08-16T02:17:25;99812.44;;;21.41;66.98
6144;BME280;3103;49.492;8.474;2022-08-16T02:19:55;99806.97;;;21.32;67.16
6144;BME280;3103;49.492;8.474;2022-08-16T02:22:26;99802.03;;;21.09;68.61
6144;BME280;3103;49.492;8.474;2022-08-16T02:25:09;99805.59;;;21.00;69.17
6144;BME280;3103;49.492;8.474;2022-08-16T02:27:41;99804.13;;;20.94;69.74
6144;BME280;3103;49.492;8.474;2022-08-16T02:30:12;99811.53;;;21.02;69.76
6144;BME280;3103;49.492;8.474;2022-08-16T02:33:01;99810.91;;;20.88;70.28
6144;BME280;3103;49.492;8.474;2022-08-16T02:35:29;99811.53;;;20.85;70.50
6144;BME280;3103;49.492;8.474;2022-08-16T02:37:56;99805.44;;;20.80;70.73
6144;BME280;3103;49.492;8.474;2022-08-16T02:40:36;99813.31;;;20.72;71.16
6144;BME280;3103;49.492;8.474;2022-08-16T02:43:03;99809.94;;;20.67;71.29
6144;BME280;3103;49.492;8.474;2022-08-16T02:45:30;99804.31;;;20.63;71.31
6144;BME280;3103;49.492;8.474;2022-08-16T02:47:58;99813.81;;;20.83;70.28
6144;BME280;3103;49.492;8.474;2022-08-16T02:50:45;99809.94;;;20.75;70.81
6144;BME280;3103;49.492;8.474;2022-08-16T02:53:33;99807.38;;;20.88;70.23
6144;BME280;3103;49.492;8.474;2022-08-16T02:56:01;99809.44;;;20.91;70.08
6144;BME280;3103;49.492;8.474;2022-08-16T02:58:28;99800.28;;;20.95;69.88
6144;BME280;3103;49.492;8.474;2022-08-16T03:00:58;99805.28;;;20.85;70.43
6144;BME280;3103;49.492;8.474;2022-08-16T03:03:27;99794.00;;;20.95;70.16
6144;BME280;3103;49.492;8.474;2022-08-16T03:06:16;99790.19;;;20.87;70.53
6144;BME280;3103;49.492;8.474;2022-08-16T03:09:12;99794.19;;;20.90;70.63
6144;BME280;3103;49.492;8.474;2022-08-16T03:11:46;99796.25;;;20.93;70.52
6144;BME280;3103;49.492;8.474;2022-08-16T03:14:13;99790.84;;;20.75;71.65
6144;BME280;3103;49.492;8.474;2022-08-16T03:16:47;99781.03;;;20.83;70.79
6144;BME280;3103;49.492;8.474;2022-08-16T03:19:32;99783.75;;;21.00;70.23
6144;BME280;3103;49.492;8.474;2022-08-16T03:22:20;99787.84;;;21.24;69.37
6144;BME280;3103;49.492;8.474;2022-08-16T03:25:05;99782.22;;;21.20;69.45
6144;BME280;3103;49.492;8.474;2022-08-16T03:27:34;99786.88;;;21.37;68.77
6144;BME280;3103;49.492;8.474;2022-08-16T03:30:11;99787.38;;;21.30;68.78
6144;BME280;3103;49.492;8.474;2022-08-16T03:32:48;99789.25;;;21.39;68.65
6144;BME280;3103;49.492;8.474;2022-08-16T03:35:22;99781.28;;;21.08;69.40
6144;BME280;3103;49.492;8.474;2022-08-16T03:38:00;99788.72;;;20.98;70.24
6144;BME280;3103;49.492;8.474;2022-08-16T03:40:39;99781.47;;;20.94;70.12
6144;BME280;3103;49.492;8.474;2022-08-16T03:43:07;99778.47;;;20.78;71.18
6144;BME280;3103;49.492;8.474;2022-08-16T03:45:49;99782.75;;;21.05;70.20
6144;BME280;3103;49.492;8.474;2022-08-16T03:48:28;99780.22;;;21.00;70.31
6144;BME280;3103;49.492;8.474;2022-08-16T03:51:09;99784.22;;;20.94;70.13
6144;BME280;3103;49.492;8.474;2022-08-16T03:53:44;99784.41;;;20.80;70.92
6144;BME280;3103;49.492;8.474;2022-08-16T03:56:27;99784.25;;;20.85;70.82
6144;BME280;3103;49.492;8.474;2022-08-16T03:58:57;99781.69;;;20.71;71.21
6144;BME280;3103;49.492;8.474;2022-08-16T04:01:28;99784.91;;;20.73;70.99
6144;BME280;3103;49.492;8.474;2022-08-16T04:03:56;99788.28;;;20.70;71.29
6144;BME280;3103;49.492;8.474;2022-08-16T04:06:22;99782.97;;;20.65;71.40
6144;BME280;3103;49.492;8.474;2022-08-16T04:08:50;99782.97;;;20.65;71.51
6144;BME280;3103;49.492;8.474;2022-08-16T04:11:17;99788.75;;;20.72;71.22
6144;BME280;3103;49.492;8.474;2022-08-16T04:13:45;99785.88;;;20.60;72.06
6144;BME280;3103;49.492;8.474;2022-08-16T04:16:36;99792.44;;;20.59;72.17
6144;BME280;3103;49.492;8.474;2022-08-16T04:19:26;99791.47;;;20.72;71.25
6144;BME280;3103;49.492;8.474;2022-08-16T04:21:58;99792.25;;;20.82;70.95
6144;BME280;3103;49.492;8.474;2022-08-16T04:24:29;99801.69;;;21.10;69.39
6144;BME280;3103;49.492;8.474;2022-08-16T04:26:56;99805.72;;;21.04;69.53
6144;BME280;3103;49.492;8.474;2022-08-16T04:29:24;99801.72;;;21.01;69.26
6144;BME280;3103;49.492;8.474;2022-08-16T04:32:09;99799.16;;;20.79;70.25
6144;BME280;3103;49.492;8.474;2022-08-16T04:34:39;99802.06;;;20.91;69.87
6144;BME280;3103;49.492;8.474;2022-08-16T04:37:07;99805.88;;;21.08;68.75
6144;BME280;3103;49.492;8.474;2022-08-16T04:39:40;99804.28;;;21.07;68.36
6144;BME280;3103;49.492;8.474;2022-08-16T04:42:22;99808.00;;;21.02;68.61
6144;BME280;3103;49.492;8.474;2022-08-16T04:44:53;99811.53;;;20.94;68.46
6144;BME280;3103;49.492;8.474;2022-08-16T04:47:27;99814.59;;;20.84;68.76
6144;BME280;3103;49.492;8.474;2022-08-16T04:50:09;99811.88;;;20.75;68.88
6144;BME280;3103;49.492;8.474;2022-08-16T04:52:36;99807.50;;;20.83;68.16
6144;BME280;3103;49.492;8.474;2022-08-16T04:55:09;99809.63;;;20.86;67.98
6144;BME280;3103;49.492;8.474;2022-08-16T04:57:38;99812.00;;;20.96;67.82
6144;BME280;3103;49.492;8.474;2022-08-16T05:00:13;99816.53;;;20.74;68.11
6144;BME280;3103;49.492;8.474;2022-08-16T05:03:07;99817.16;;;20.97;67.23
6144;BME280;3103;49.492;8.474;2022-08-16T05:05:55;99810.88;;;20.97;67.04
6144;BME280;3103;49.492;8.474;2022-08-16T05:08:31;99830.47;;;20.90;67.26
6144;BME280;3103;49.492;8.474;2022-08-16T05:11:15;99823.91;;;21.00;67.10
6144;BME280;3103;49.492;8.474;2022-08-16T05:13:46;99823.84;;;21.17;66.72
6144;BME280;3103;49.492;8.474;2022-08-16T05:16:23;99835.22;;;21.45;65.15
6144;BME280;3103;49.492;8.474;2022-08-16T05:19:13;99840.09;;;21.40;65.38
6144;BME280;3103;49.492;8.474;2022-08-16T05:22:02;99838.63;;;21.42;65.37
6144;BME280;3103;49.492;8.474;2022-08-16T05:24:32;99837.34;;;21.40;65.38
6144;BME280;3103;49.492;8.474;2022-08-16T05:27:01;99835.56;;;21.35;65.47
6144;BME280;3103;49.492;8.474;2022-08-16T05:29:39;99845.88;;;21.29;65.77
6144;BME280;3103;49.492;8.474;2022-08-16T05:32:25;99839.75;;;21.41;65.43
6144;BME280;3103;49.492;8.474;2022-08-16T05:35:06;99843.56;;;21.49;64.87
6144;BME280;3103;49.492;8.474;2022-08-16T05:37:42;99844.97;;;21.63;64.57
6144;BME280;3103;49.492;8.474;2022-08-16T05:40:12;99851.56;;;21.71;64.08
6144;BME280;3103;49.492;8.474;2022-08-16T05:42:42;99854.06;;;21.85;63.52
6144;BME280;3103;49.492;8.474;2022-08-16T05:45:15;99849.19;;;21.90;62.80
6144;BME280;3103;49.492;8.474;2022-08-16T05:47:50;99853.75;;;21.78;63.54
6144;BME280;3103;49.492;8.474;2022-08-16T05:50:26;99859.06;;;21.83;63.49
6144;BME280;3103;49.492;8.474;2022-08-16T05:52:59;99852.50;;;21.75;63.63
6144;BME280;3103;49.492;8.474;2022-08-16T05:55:27;99853.47;;;21.71;63.41
6144;BME280;3103;49.492;8.474;2022-08-16T05:57:56;99861.63;;;21.79;63.69
6144;BME280;3103;49.492;8.474;2022-08-16T06:00:23;99863.19;;;21.98;62.51
6144;BME280;3103;49.492;8.474;2022-08-16T06:02:53;99870.59;;;21.97;62.67
6144;BME280;3103;49.492;8.474;2022-08-16T06:05:39;99862.19;;;22.02;62.57
6144;BME280;3103;49.492;8.474;2022-08-16T06:08:08;99854.31;;;22.01;62.47
6144;BME280;3103;49.492;8.474;2022-08-16T06:10:55;99872.03;;;21.94;62.29
6144;BME280;3103;49.492;8.474;2022-08-16T06:13:35;99870.41;;;21.55;63.96
6144;BME280;3103;49.492;8.474;2022-08-16T06:16:12;99872.16;;;21.60;63.86
6144;BME280;3103;49.492;8.474;2022-08-16T06:18:45;99870.84;;;21.66;63.87
6144;BME280;3103;49.492;8.474;2022-08-16T06:21:14;99867.09;;;21.79;63.59
6144;BME280;3103;49.492;8.474;2022-08-16T06:23:55;99874.16;;;21.80;63.72
6144;BME280;3103;49.492;8.474;2022-08-16T06:26:27;99875.88;;;21.93;63.08
6144;BME280;3103;49.492;8.474;2022-08-16T06:29:04;99874.09;;;22.06;62.71
6144;BME280;3103;49.492;8.474;2022-08-16T06:31:36;99871.50;;;22.10;62.56
6144;BME280;3103;49.492;8.474;2022-08-16T06:34:14;99869.28;;;22.33;61.67
6144;BME280;3103;49.492;8.474;2022-08-16T06:37:01;99875.75;;;22.28;61.59
6144;BME280;3103;49.492;8.474;2022-08-16T06:39:33;99878.19;;;22.50;61.02
6144;BME280;3103;49.492;8.474;2022-08-16T06:42:21;99877.19;;;22.55;60.69
6144;BME280;3103;49.492;8.474;2022-08-16T06:45:00;99887.44;;;22.67;60.41
6144;BME280;3103;49.492;8.474;2022-08-16T06:47:36;99890.63;;;22.69;60.28
6144;BME280;3103;49.492;8.474;2022-08-16T06:50:24;99889.25;;;22.33;61.81
6144;BME280;3103;49.492;8.474;2022-08-16T06:52:57;99890.50;;;22.36;62.03
6144;BME280;3103;49.492;8.474;2022-08-16T06:55:36;99890.75;;;22.22;62.61
6144;BME280;3103;49.492;8.474;2022-08-16T06:58:07;99896.97;;;22.31;62.30
6144;BME280;3103;49.492;8.474;2022-08-16T07:01:00;99888.19;;;22.46;61.83
6144;BME280;3103;49.492;8.474;2022-08-16T07:03:30;99887.16;;;22.30;62.53
6144;BME280;3103;49.492;8.474;2022-08-16T07:06:00;99891.94;;;22.42;62.13
6144;BME280;3103;49.492;8.474;2022-08-16T07:08:33;99893.44;;;22.31;62.64
6144;BME280;3103;49.492;8.474;2022-08-16T07:11:00;99890.81;;;22.43;62.32
6144;BME280;3103;49.492;8.474;2022-08-16T07:13:30;99889.91;;;22.30;62.49
6144;BME280;3103;49.492;8.474;2022-08-16T07:16:18;99890.03;;;22.34;62.71
6144;BME280;3103;49.492;8.474;2022-08-16T07:18:47;99896.41;;;22.46;62.53
6144;BME280;3103;49.492;8.474;2022-08-16T07:21:30;99894.94;;;22.49;62.42
6144;BME280;3103;49.492;8.474;2022-08-16T07:24:17;99900.00;;;22.38;62.69
6144;BME280;3103;49.492;8.474;2022-08-16T07:27:00;99891.81;;;22.38;62.66
6144;BME280;3103;49.492;8.474;2022-08-16T07:29:29;99890.41;;;22.23;63.22
6144;BME280;3103;49.492;8.474;2022-08-16T07:31:59;99892.28;;;22.40;62.78
6144;BME280;3103;49.492;8.474;2022-08-16T07:34:27;99885.66;;;22.62;62.11
6144;BME280;3103;49.492;8.474;2022-08-16T07:37:07;99892.59;;;22.89;61.09
6144;BME280;3103;49.492;8.474;2022-08-16T07:39:55;99891.44;;;23.11;60.41
6144;BME280;3103;49.492;8.474;2022-08-16T07:42:23;99886.19;;;23.39;59.47
6144;BME280;3103;49.492;8.474;2022-08-16T07:45:01;99883.91;;;23.41;59.48
6144;BME280;3103;49.492;8.474;2022-08-16T07:47:33;99872.94;;;23.41;59.47
6144;BME280;3103;49.492;8.474;2022-08-16T07:50:00;99881.78;;;23.59;58.88
6144;BME280;3103;49.492;8.474;2022-08-16T07:52:33;99878.50;;;23.65;58.47
6144;BME280;3103;49.492;8.474;2022-08-16T07:55:06;99885.78;;;23.61;58.10
6144;BME280;3103;49.492;8.474;2022-08-16T07:57:33;99888.81;;;23.48;58.39
6144;BME280;3103;49.492;8.474;2022-08-16T08:00:20;99898.59;;;23.57;58.05
6144;BME280;3103;49.492;8.474;2022-08-16T08:02:53;99899.31;;;23.66;57.57
6144;BME280;3103;49.492;8.474;2022-08-16T08:05:23;99895.78;;;23.66;57.88
6144;BME280;3103;49.492;8.474;2022-08-16T08:08:02;99898.66;;;24.18;56.17
6144;BME280;3103;49.492;8.474;2022-08-16T08:10:50;99900.75;;;24.21;55.79
6144;BME280;3103;49.492;8.474;2022-08-16T08:13:18;99906.81;;;24.39;55.47
6144;BME280;3103;49.492;8.474;2022-08-16T08:16:06;99903.59;;;24.49;54.90
6144;BME280;3103;49.492;8.474;2022-08-16T08:18:44;99903.81;;;24.56;54.81
6144;BME280;3103;49.492;8.474;2022-08-16T08:21:23;99914.69;;;24.53;54.67
6144;BME280;3103;49.492;8.474;2022-08-16T08:23:54;99908.84;;;24.67;54.16
6144;BME280;3103;49.492;8.474;2022-08-16T08:26:23;99916.00;;;24.83;53.74
6144;BME280;3103;49.492;8.474;2022-08-16T08:28:50;99913.50;;;24.78;53.51
6144;BME280;3103;49.492;8.474;2022-08-16T08:31:18;99915.84;;;25.04;52.87
6144;BME280;3103;49.492;8.474;2022-08-16T08:33:46;99912.66;;;25.02;53.20
6144;BME280;3103;49.492;8.474;2022-08-16T08:36:27;99914.38;;;24.95;53.15
6144;BME280;3103;49.492;8.474;2022-08-16T08:39:04;99907.28;;;25.06;53.03
6144;BME280;3103;49.492;8.474;2022-08-16T08:41:41;99916.81;;;25.24;52.32
6144;BME280;3103;49.492;8.474;2022-08-16T08:44:13;99921.63;;;25.27;51.86
6144;BME280;3103;49.492;8.474;2022-08-16T08:46:59;99923.25;;;25.16;52.80
6144;BME280;3103;49.492;8.474;2022-08-16T08:49:29;99918.78;;;25.24;52.89
6144;BME280;3103;49.492;8.474;2022-08-16T08:52:17;99917.97;;;25.51;52.15
6144;BME280;3103;49.492;8.474;2022-08-16T08:55:09;99914.91;;;25.68;51.61
6144;BME280;3103;49.492;8.474;2022-08-16T08:57:42;99921.28;;;25.72;51.53
6144;BME280;3103;49.492;8.474;2022-08-16T09:00:17;99919.16;;;25.38;51.89
6144;BME280;3103;49.492;8.474;2022-08-16T09:02:53;99915.34;;;25.42;52.35
6144;BME280;3103;49.492;8.474;2022-08-16T09:05:23;99915.66;;;25.25;52.27
6144;BME280;3103;49.492;8.474;2022-08-16T09:08:01;99924.25;;;25.52;52.13
6144;BME280;3103;49.492;8.474;2022-08-16T09:11:04;99919.34;;;25.73;51.33
6144;BME280;3103;49.492;8.474;2022-08-16T09:13:34;99922.81;;;25.86;51.19
6144;BME280;3103;49.492;8.474;2022-08-16T09:16:02;99922.22;;;25.92;51.25
6144;BME280;3103;49.492;8.474;2022-08-16T09:18:29;99921.94;;;26.13;50.29
6144;BME280;3103;49.492;8.474;2022-08-16T09:21:02;99917.06;;;26.22;49.80
6144;BME280;3103;49.492;8.474;2022-08-16T09:23:30;99923.59;;;26.18;50.16
6144;BME280;3103;49.492;8.474;2022-08-16T09:26:06;99921.19;;;26.32;49.81
6144;BME280;3103;49.492;8.474;2022-08-16T09:28:53;99908.94;;;26.29;49.74
6144;BME280;3103;49.492;8.474;2022-08-16T09:31:41;99913.16;;;26.39;49.30
6144;BME280;3103;49.492;8.474;2022-08-16T09:34:08;99914.75;;;26.40;49.38
6144;BME280;3103;49.492;8.474;2022-08-16T09:36:36;99914.31;;;26.38;48.86
6144;BME280;3103;49.492;8.474;2022-08-16T09:39:12;99916.06;;;26.46;48.62
6144;BME280;3103;49.492;8.474;2022-08-16T09:41:43;99916.34;;;26.76;47.52
6144;BME280;3103;49.492;8.474;2022-08-16T09:44:23;99914.91;;;26.47;48.48
6144;BME280;3103;49.492;8.474;2022-08-16T09:47:10;99916.72;;;26.59;49.75
6144;BME280;3103;49.492;8.474;2022-08-16T09:49:37;99914.03;;;26.43;48.87
6144;BME280;3103;49.492;8.474;2022-08-16T09:52:08;99921.44;;;26.58;49.31
6144;BME280;3103;49.492;8.474;2022-08-16T09:54:35;99925.84;;;26.79;47.76
6144;BME280;3103;49.492;8.474;2022-08-16T09:57:03;99918.56;;;26.20;48.75
6144;BME280;3103;49.492;8.474;2022-08-16T09:59:31;99919.09;;;25.94;49.74
6144;BME280;3103;49.492;8.474;2022-08-16T10:02:05;99917.75;;;26.03;48.78
6144;BME280;3103;49.492;8.474;2022-08-16T10:04:53;99912.31;;;25.75;50.21
6144;BME280;3103;49.492;8.474;2022-08-16T10:07:22;99912.38;;;25.91;49.47
6144;BME280;3103;49.492;8.474;2022-08-16T10:09:49;99909.31;;;25.81;49.50
6144;BME280;3103;49.492;8.474;2022-08-16T10:12:26;99909.31;;;26.12;48.86
6144;BME280;3103;49.492;8.474;2022-08-16T10:15:21;99910.28;;;25.88;49.80
6144;BME280;3103;49.492;8.474;2022-08-16T10:17:51;99902.94;;;25.92;49.80
6144;BME280;3103;49.492;8.474;2022-08-16T10:20:30;99905.25;;;25.90;49.96
6144;BME280;3103;49.492;8.474;2022-08-16T10:23:00;99901.78;;;26.09;49.00
6144;BME280;3103;49.492;8.474;2022-08-16T10:25:37;99905.41;;;25.97;49.24
6144;BME280;3103;49.492;8.474;2022-08-16T10:28:27;99893.19;;;25.79;50.12
6144;BME280;3103;49.492;8.474;2022-08-16T10:31:05;99900.09;;;25.73;50.42
6144;BME280;3103;49.492;8.474;2022-08-16T10:33:34;99900.53;;;25.75;50.29
6144;BME280;3103;49.492;8.474;2022-08-16T10:36:07;99901.59;;;25.86;49.88
6144;BME280;3103;49.492;8.474;2022-08-16T10:38:36;99912.25;;;25.88;49.48
6144;BME280;3103;49.492;8.474;2022-08-16T10:41:07;99901.16;;;26.00;49.65
6144;BME280;3103;49.492;8.474;2022-08-16T10:43:36;99901.13;;;26.31;48.04
6144;BME280;3103;49.492;8.474;2022-08-16T10:46:06;99901.22;;;26.51;48.45
6144;BME280;3103;49.492;8.474;2022-08-16T10:48:53;99899.78;;;26.57;46.21
6144;BME280;3103;49.492;8.474;2022-08-16T10:51:24;99900.25;;;26.43;46.71
6144;BME280;3103;49.492;8.474;2022-08-16T10:53:59;99906.66;;;26.47;47.72
6144;BME280;3103;49.492;8.474;2022-08-16T10:56:26;99907.41;;;26.63;46.69
6144;BME280;3103;49.492;8.474;2022-08-16T10:59:12;99897.34;;;26.36;47.37
6144;BME280;3103;49.492;8.474;2022-08-16T11:01:59;99906.81;;;26.54;46.81
6144;BME280;3103;49.492;8.474;2022-08-16T11:04:47;99907.25;;;26.56;47.26
6144;BME280;3103;49.492;8.474;2022-08-16T11:07:34;99905.13;;;26.50;46.07
6144;BME280;3103;49.492;8.474;2022-08-16T11:10:24;99908.69;;;26.50;46.02
6144;BME280;3103;49.492;8.474;2022-08-16T11:13:15;99907.13;;;26.69;46.59
6144;BME280;3103;49.492;8.474;2022-08-16T11:16:04;99903.75;;;26.95;45.50
6144;BME280;3103;49.492;8.474;2022-08-16T11:18:51;99905.78;;;26.98;45.42
6144;BME280;3103;49.492;8.474;2022-08-16T11:21:33;99917.94;;;26.77;46.65
6144;BME280;3103;49.492;8.474;2022-08-16T11:24:04;99911.34;;;26.82;46.28
6144;BME280;3103;49.492;8.474;2022-08-16T11:26:50;99910.19;;;26.83;45.03
6144;BME280;3103;49.492;8.474;2022-08-16T11:29:38;99914.41;;;26.77;45.42
6144;BME280;3103;49.492;8.474;2022-08-16T11:32:05;99902.41;;;26.88;44.57
6144;BME280;3103;49.492;8.474;2022-08-16T11:34:35;99910.75;;;27.08;44.34
6144;BME280;3103;49.492;8.474;2022-08-16T11:37:22;99905.66;;;27.10;44.46
6144;BME280;3103;49.492;8.474;2022-08-16T11:40:09;99921.47;;;27.32;44.50
6144;BME280;3103;49.492;8.474;2022-08-16T11:42:37;99910.50;;;27.36;44.27
6144;BME280;3103;49.492;8.474;2022-08-16T11:45:06;99914.09;;;27.59;43.32
6144;BME280;3103;49.492;8.474;2022-08-16T11:47:33;99908.75;;;27.47;42.41
6144;BME280;3103;49.492;8.474;2022-08-16T11:49:59;99912.22;;;26.86;43.86
6144;BME280;3103;49.492;8.474;2022-08-16T11:52:28;99908.00;;;26.73;44.27
6144;BME280;3103;49.492;8.474;2022-08-16T11:54:55;99906.94;;;26.77;45.12
6144;BME280;3103;49.492;8.474;2022-08-16T11:57:25;99908.34;;;27.06;44.05
6144;BME280;3103;49.492;8.474;2022-08-16T11:59:53;99903.28;;;27.08;43.97
6144;BME280;3103;49.492;8.474;2022-08-16T12:02:20;99913.47;;;27.27;42.91
6144;BME280;3103;49.492;8.474;2022-08-16T12:04:58;99904.56;;;27.34;42.20
6144;BME280;3103;49.492;8.474;2022-08-16T12:07:28;99903.25;;;27.28;42.46
6144;BME280;3103;49.492;8.474;2022-08-16T12:09:59;99905.38;;;27.34;42.12
6144;BME280;3103;49.492;8.474;2022-08-16T12:12:28;99896.34;;;27.37;42.36
6144;BME280;3103;49.492;8.474;2022-08-16T12:14:58;99901.97;;;27.21;42.22
6144;BME280;3103;49.492;8.474;2022-08-16T12:17:29;99895.06;;;27.12;42.23
6144;BME280;3103;49.492;8.474;2022-08-16T12:20:04;99894.25;;;27.11;43.05
6144;BME280;3103;49.492;8.474;2022-08-16T12:22:35;99894.47;;;27.22;42.87
6144;BME280;3103;49.492;8.474;2022-08-16T12:25:13;99896.81;;;27.20;42.83
6144;BME280;3103;49.492;8.474;2022-08-16T12:27:41;99898.41;;;27.21;42.58
6144;BME280;3103;49.492;8.474;2022-08-16T12:30:15;99892.31;;;27.31;42.49
6144;BME280;3103;49.492;8.474;2022-08-16T12:32:52;99886.47;;;27.36;41.94
6144;BME280;3103;49.492;8.474;2022-08-16T12:35:25;99885.97;;;27.31;42.25
6144;BME280;3103;49.492;8.474;2022-08-16T12:37:56;99893.91;;;27.55;42.06
6144;BME280;3103;49.492;8.474;2022-08-16T12:40:28;99891.69;;;27.41;43.32
6144;BME280;3103;49.492;8.474;2022-08-16T12:42:59;99886.69;;;27.28;43.36
6144;BME280;3103;49.492;8.474;2022-08-16T12:45:29;99897.19;;;27.18;42.55
6144;BME280;3103;49.492;8.474;2022-08-16T12:47:57;99891.19;;;27.36;42.08
6144;BME280;3103;49.492;8.474;2022-08-16T12:51:06;99886.34;;;27.29;42.24
6144;BME280;3103;49.492;8.474;2022-08-16T12:53:51;99893.91;;;27.55;41.31
6144;BME280;3103;49.492;8.474;2022-08-16T12:56:21;99883.84;;;27.43;41.53
6144;BME280;3103;49.492;8.474;2022-08-16T12:58:52;99880.13;;;27.55;41.39
6144;BME280;3103;49.492;8.474;2022-08-16T13:01:25;99879.66;;;27.72;40.90
6144;BME280;3103;49.492;8.474;2022-08-16T13:03:53;99863.97;;;27.76;40.21
6144;BME280;3103;49.492;8.474;2022-08-16T13:06:41;99876.50;;;27.51;40.93
6144;BME280;3103;49.492;8.474;2022-08-16T13:09:08;99863.50;;;27.51;40.93
6144;BME280;3103;49.492;8.474;2022-08-16T13:12:07;99860.94;;;27.62;40.96
6144;BME280;3103;49.492;8.474;2022-08-16T13:14:45;99858.19;;;27.62;40.41
6144;BME280;3103;49.492;8.474;2022-08-16T13:17:22;99853.66;;;27.96;39.62
6144;BME280;3103;49.492;8.474;2022-08-16T13:19:52;99852.69;;;28.12;39.68
6144;BME280;3103;49.492;8.474;2022-08-16T13:22:53;99864.03;;;28.03;40.12
6144;BME280;3103;49.492;8.474;2022-08-16T13:25:22;99867.50;;;28.00;39.86
6144;BME280;3103;49.492;8.474;2022-08-16T13:27:51;99861.94;;;28.23;38.65
6144;BME280;3103;49.492;8.474;2022-08-16T13:30:39;99852.88;;;28.22;38.59
6144;BME280;3103;49.492;8.474;2022-08-16T13:33:14;99861.56;;;28.24;38.36
6144;BME280;3103;49.492;8.474;2022-08-16T13:35:59;99862.22;;;28.41;37.25
6144;BME280;3103;49.492;8.474;2022-08-16T13:38:31;99861.66;;;28.28;38.22
6144;BME280;3103;49.492;8.474;2022-08-16T13:41:06;99859.78;;;28.62;36.08
6144;BME280;3103;49.492;8.474;2022-08-16T13:43:34;99854.22;;;28.58;36.55
6144;BME280;3103;49.492;8.474;2022-08-16T13:46:01;99849.50;;;28.62;37.33
6144;BME280;3103;49.492;8.474;2022-08-16T13:48:31;99843.22;;;28.65;37.40
6144;BME280;3103;49.492;8.474;2022-08-16T13:51:16;99849.47;;;28.59;38.17
6144;BME280;3103;49.492;8.474;2022-08-16T13:53:46;99852.50;;;28.80;38.04
6144;BME280;3103;49.492;8.474;2022-08-16T13:56:24;99849.00;;;28.53;38.30
6144;BME280;3103;49.492;8.474;2022-08-16T13:59:03;99845.81;;;28.51;38.11
6144;BME280;3103;49.492;8.474;2022-08-16T14:01:31;99847.56;;;28.36;38.47
6144;BME280;3103;49.492;8.474;2022-08-16T14:04:02;99845.22;;;28.38;38.23
6144;BME280;3103;49.492;8.474;2022-08-16T14:06:29;99842.09;;;28.70;37.62
6144;BME280;3103;49.492;8.474;2022-08-16T14:08:56;99840.81;;;28.90;37.31